Herschel, Canada
Current Conditions -  °F | °C
As of 5:00 PM on Saturday 25 Oct 2014 (Local Time) from CYKY Reporting Station
Broken Clouds Broken Clouds  
Wind Chill: 39°   Ceiling: 8000
Heat Index: 46°   Visibility: 15mi
Dew Point: 28°   Wind: 18mph
Humidity: 50%   Direction: 90°E
Pressure: 29.81"   Gusts: NA
Location:  51.63°N, 108.35°W
Report Text: CYKY 252300Z 09016KT 15SM FEW060 BKN080 08/M02 A2981 RMK SC1AC6 SLP118
Loading
Personal Weather Stations






























Interactive Weather Map
Tropical Storm Tracking
New forecast layout! Learn more

10-Day Weather Forecast

Advertisements
Track Severe Weather on mobile